createdAt,value
2019-03-18T00:02:21.111Z,6.80
2019-03-18T00:04:51.603Z,6.70
2019-03-18T00:07:22.036Z,6.80
2019-03-18T00:09:52.438Z,6.60
2019-03-18T00:12:22.859Z,6.70
2019-03-18T00:15:01.109Z,6.90
2019-03-18T00:17:25.367Z,6.90
2019-03-18T00:19:55.809Z,6.70
2019-03-18T00:22:26.235Z,6.50
2019-03-18T00:24:56.654Z,6.60
2019-03-18T00:27:27.079Z,6.40
2019-03-18T00:29:57.476Z,6.40
2019-03-18T00:32:27.943Z,6.30
2019-03-18T00:34:58.361Z,6.30
2019-03-18T00:37:28.828Z,6.30
2019-03-18T00:39:59.228Z,6.30
2019-03-18T00:42:29.645Z,6.50
2019-03-18T00:45:00.188Z,6.30
2019-03-18T00:47:30.794Z,6.40
2019-03-18T00:50:01.223Z,6.40
2019-03-18T00:52:31.670Z,6.20
2019-03-18T00:55:02.109Z,6.50
2019-03-18T00:57:32.494Z,6.40
2019-03-18T01:00:02.891Z,6.40
2019-03-18T01:02:33.355Z,6.50
2019-03-18T01:05:03.902Z,6.60
2019-03-18T01:07:34.294Z,6.70
2019-03-18T01:10:05.288Z,6.40
2019-03-18T01:12:35.711Z,6.40
2019-03-18T01:15:06.778Z,6.40
2019-03-18T01:17:37.298Z,6.40
2019-03-18T01:20:07.866Z,6.40
2019-03-18T01:22:38.271Z,6.30
2019-03-18T01:25:09.234Z,6.50
2019-03-18T01:27:39.767Z,6.40
2019-03-18T01:30:10.388Z,6.40
2019-03-18T01:32:40.932Z,6.50
2019-03-18T01:35:11.547Z,6.30
2019-03-18T01:37:42.046Z,6.30
2019-03-18T01:40:12.667Z,6.50
2019-03-18T01:42:43.185Z,6.30
2019-03-18T01:45:14.403Z,6.50
2019-03-18T01:47:44.851Z,6.40
2019-03-18T01:50:15.445Z,6.10
2019-03-18T01:52:45.880Z,6.20
2019-03-18T01:55:16.446Z,6.10
2019-03-18T01:57:46.887Z,6.40
2019-03-18T02:00:17.868Z,6.50
2019-03-18T02:02:48.290Z,6.20
2019-03-18T02:05:18.683Z,6.40
2019-03-18T02:07:49.119Z,6.60
2019-03-18T02:10:19.643Z,6.40
2019-03-18T02:12:50.101Z,6.60
2019-03-18T02:15:20.515Z,6.60
2019-03-18T02:17:50.907Z,6.70
2019-03-18T02:20:21.640Z,6.80
2019-03-18T02:22:52.055Z,6.70
2019-03-18T02:25:22.483Z,6.60
2019-03-18T02:27:52.926Z,6.70
2019-03-18T02:30:23.322Z,6.60
2019-03-18T02:32:53.770Z,6.60
2019-03-18T02:35:24.167Z,6.80
2019-03-18T02:37:54.654Z,6.60
2019-03-18T02:40:25.064Z,6.80
2019-03-18T02:42:55.524Z,6.80
2019-03-18T02:45:25.927Z,6.60
2019-03-18T02:47:56.397Z,6.60
2019-03-18T02:50:26.812Z,6.50
2019-03-18T02:52:57.259Z,6.60
2019-03-18T02:55:27.684Z,6.40
2019-03-18T02:57:58.241Z,6.50
2019-03-18T03:00:28.751Z,6.40
2019-03-18T03:02:59.167Z,6.20
2019-03-18T03:05:29.593Z,6.10
2019-03-18T03:08:00.001Z,6.10
2019-03-18T03:10:30.422Z,6.10
2019-03-18T03:13:00.888Z,6.10
2019-03-18T03:15:31.404Z,6.00
2019-03-18T03:18:01.806Z,6.20
2019-03-18T03:20:32.234Z,6.10
2019-03-18T03:23:02.619Z,6.10
2019-03-18T03:25:33.055Z,6.30
2019-03-18T03:28:03.446Z,6.20
2019-03-18T03:30:33.854Z,6.20
2019-03-18T03:33:04.344Z,6.10
2019-03-18T03:35:34.754Z,6.30
2019-03-18T03:38:05.184Z,6.20
2019-03-18T03:40:35.616Z,6.10
2019-03-18T03:43:06.112Z,6.30
2019-03-18T03:45:36.504Z,6.20
2019-03-18T03:48:07.516Z,6.30
2019-03-18T03:50:37.918Z,6.50
2019-03-18T03:53:08.454Z,6.30
2019-03-18T03:55:39.176Z,6.50
2019-03-18T03:58:09.815Z,6.40
2019-03-18T04:00:40.273Z,6.50
2019-03-18T04:03:10.674Z,6.50
2019-03-18T04:05:41.208Z,6.30
2019-03-18T04:08:11.719Z,6.50
2019-03-18T04:10:42.285Z,6.30
2019-03-18T04:13:12.696Z,6.40
2019-03-18T04:15:43.086Z,6.30
2019-03-18T04:18:13.526Z,6.30
2019-03-18T04:20:44.023Z,6.20
2019-03-18T04:23:14.516Z,6.10
2019-03-18T04:25:44.943Z,6.20
2019-03-18T04:28:15.323Z,6.10
2019-03-18T04:30:45.769Z,6.00
2019-03-18T04:33:16.203Z,6.10
2019-03-18T04:35:46.703Z,6.10
2019-03-18T04:38:17.151Z,6.10
2019-03-18T04:40:47.545Z,6.10
2019-03-18T04:43:17.943Z,6.10
2019-03-18T04:45:48.490Z,6.30
2019-03-18T04:48:18.927Z,6.10
2019-03-18T04:50:49.393Z,6.00
2019-03-18T04:53:19.805Z,6.10
2019-03-18T04:55:50.292Z,6.10
2019-03-18T04:58:20.707Z,6.10
2019-03-18T05:00:51.231Z,6.10
2019-03-18T05:03:21.693Z,6.20
2019-03-18T05:05:52.091Z,6.10
2019-03-18T05:08:22.523Z,6.10
2019-03-18T05:10:53.019Z,6.10
2019-03-18T05:13:26.322Z,6.20
2019-03-18T05:15:55.403Z,6.10
2019-03-18T05:18:25.839Z,6.10
2019-03-18T05:20:56.287Z,6.20
2019-03-18T05:23:26.703Z,6.10
2019-03-18T05:25:57.154Z,6.10
2019-03-18T05:28:27.699Z,6.20
2019-03-18T05:30:58.097Z,6.10
2019-03-18T05:33:28.526Z,6.10
2019-03-18T05:35:58.918Z,6.20
2019-03-18T05:38:29.368Z,6.50
2019-03-18T05:40:59.833Z,6.20
2019-03-18T05:43:30.470Z,6.10
2019-03-18T05:46:00.881Z,6.20
2019-03-18T05:48:31.294Z,6.40
2019-03-18T05:51:01.717Z,6.20
2019-03-18T05:53:32.127Z,6.20
2019-03-18T05:56:02.563Z,6.20
2019-03-18T05:58:34.142Z,6.20
2019-03-18T06:01:04.608Z,6.10
2019-03-18T06:03:34.997Z,6.00
2019-03-18T06:06:05.510Z,6.30
2019-03-18T06:08:35.953Z,6.10
2019-03-18T06:11:06.362Z,6.20
2019-03-18T06:13:36.791Z,6.40
2019-03-18T06:16:07.219Z,6.20
2019-03-18T06:18:37.641Z,6.20
2019-03-18T06:21:08.044Z,6.30
2019-03-18T06:23:38.467Z,6.40
2019-03-18T06:26:08.908Z,6.40
2019-03-18T06:28:39.294Z,6.60
2019-03-18T06:31:09.727Z,6.50
2019-03-18T06:33:40.142Z,6.60
2019-03-18T06:36:10.591Z,6.90
2019-03-18T06:38:40.994Z,7.10
2019-03-18T06:41:11.400Z,7.10
2019-03-18T06:43:41.834Z,7.20
2019-03-18T06:46:12.282Z,7.20
2019-03-18T06:48:42.732Z,7.20
2019-03-18T06:51:13.130Z,7.50
2019-03-18T06:53:43.587Z,7.40
2019-03-18T06:56:14.059Z,7.40
2019-03-18T06:58:44.502Z,7.50
2019-03-18T07:01:14.940Z,7.50
2019-03-18T07:03:45.339Z,7.60
2019-03-18T07:06:15.747Z,7.50
2019-03-18T07:08:46.187Z,7.40
2019-03-18T07:11:16.600Z,7.50
2019-03-18T07:13:47.008Z,7.20
2019-03-18T07:16:17.428Z,7.40
2019-03-18T07:18:47.839Z,7.20
2019-03-18T07:21:18.275Z,7.40
2019-03-18T07:23:48.701Z,7.20
2019-03-18T07:26:19.122Z,7.10
2019-03-18T07:28:49.540Z,6.90
2019-03-18T07:31:19.934Z,6.90
2019-03-18T07:33:50.969Z,6.80
2019-03-18T07:36:21.383Z,7.10
2019-03-18T07:38:51.839Z,7.20
2019-03-18T07:41:22.239Z,7.30
2019-03-18T07:43:52.659Z,7.80
2019-03-18T07:46:23.074Z,8.20
2019-03-18T07:48:53.518Z,8.50
2019-03-18T07:51:23.971Z,9.00
2019-03-18T07:53:54.390Z,9.10
2019-03-18T07:56:24.840Z,9.40
2019-03-18T07:58:55.275Z,9.60
2019-03-18T08:01:25.728Z,9.60
2019-03-18T08:03:56.141Z,9.90
2019-03-18T08:06:26.562Z,9.70
2019-03-18T08:08:56.975Z,9.70
2019-03-18T08:11:27.412Z,9.50
2019-03-18T08:13:57.851Z,9.60
2019-03-18T08:16:28.276Z,9.40
2019-03-18T08:18:58.727Z,9.10
2019-03-18T08:21:29.160Z,8.60
2019-03-18T08:23:59.559Z,8.90
2019-03-18T08:26:29.992Z,8.90
2019-03-18T08:29:00.424Z,9.20
2019-03-18T08:31:30.835Z,9.30
2019-03-18T08:34:01.263Z,9.60
2019-03-18T08:36:31.832Z,9.70
2019-03-18T08:39:02.325Z,9.80
2019-03-18T08:41:32.752Z,9.90
2019-03-18T08:44:03.174Z,9.90
2019-03-18T08:46:33.576Z,10.00
2019-03-18T08:49:04.097Z,10.10
2019-03-18T08:51:34.617Z,10.40
2019-03-18T08:54:05.075Z,10.30
2019-03-18T08:56:35.527Z,10.50
2019-03-18T08:59:05.939Z,10.60
2019-03-18T09:01:36.516Z,10.60
2019-03-18T09:04:06.935Z,10.80
2019-03-18T09:06:37.361Z,11.10
2019-03-18T09:09:09.290Z,11.10
2019-03-18T09:11:39.733Z,11.10
2019-03-18T09:14:10.220Z,11.30
2019-03-18T09:16:40.614Z,11.00
2019-03-18T09:19:11.119Z,11.10
2019-03-18T09:21:41.565Z,11.00
2019-03-18T09:24:11.964Z,10.90
2019-03-18T09:26:42.375Z,11.20
2019-03-18T09:29:12.813Z,11.10
2019-03-18T09:31:43.522Z,11.30
2019-03-18T09:34:13.926Z,11.40
2019-03-18T09:36:44.461Z,11.50
2019-03-18T09:39:14.930Z,11.50
2019-03-18T09:41:45.355Z,11.40
2019-03-18T09:44:15.759Z,11.10
2019-03-18T09:46:46.179Z,10.90
2019-03-18T09:49:21.401Z,10.40
2019-03-18T09:51:48.660Z,10.20
2019-03-18T09:54:19.082Z,10.10
2019-03-18T09:56:49.527Z,10.20
2019-03-18T09:59:19.955Z,10.10
2019-03-18T10:01:50.435Z,10.40
2019-03-18T10:04:20.853Z,10.70
2019-03-18T10:06:51.267Z,10.70
2019-03-18T10:09:21.701Z,10.90
2019-03-18T10:11:52.123Z,11.30
2019-03-18T10:14:22.563Z,11.30
2019-03-18T10:16:52.988Z,11.50
2019-03-18T10:19:33.047Z,11.30
2019-03-18T10:21:55.446Z,11.30
2019-03-18T10:24:25.910Z,11.20
2019-03-18T10:26:56.318Z,11.30
2019-03-18T10:29:26.776Z,11.40
2019-03-18T10:31:57.242Z,11.30
2019-03-18T10:34:27.683Z,11.30
2019-03-18T10:36:58.163Z,11.40
2019-03-18T10:39:28.613Z,11.40
2019-03-18T10:41:59.056Z,11.30
2019-03-18T10:44:29.566Z,11.40
2019-03-18T10:47:00.018Z,11.40
2019-03-18T10:49:30.443Z,11.40
2019-03-18T10:52:00.928Z,11.40
2019-03-18T10:54:31.597Z,11.10
2019-03-18T10:57:02.334Z,11.20
2019-03-18T10:59:32.812Z,11.10
2019-03-18T11:02:03.280Z,11.10
2019-03-18T11:04:33.695Z,10.70
2019-03-18T11:07:04.203Z,10.90
2019-03-18T11:09:34.673Z,11.20
2019-03-18T11:12:05.079Z,11.10
2019-03-18T11:14:35.522Z,11.30
2019-03-18T11:17:06.096Z,11.30
2019-03-18T11:19:36.503Z,11.40
2019-03-18T11:22:07.047Z,11.40
2019-03-18T11:24:37.446Z,11.40
2019-03-18T11:27:07.855Z,11.00
2019-03-18T11:29:38.247Z,10.80
2019-03-18T11:32:08.740Z,10.60
2019-03-18T11:34:39.238Z,10.50
2019-03-18T11:37:09.679Z,10.70
2019-03-18T11:39:40.118Z,10.80
2019-03-18T11:42:10.561Z,10.70
2019-03-18T11:44:41.023Z,10.60
2019-03-18T11:47:11.556Z,10.70
2019-03-18T11:49:41.986Z,10.80
2019-03-18T11:52:12.427Z,10.70
2019-03-18T11:54:42.990Z,10.60
2019-03-18T11:57:13.408Z,10.50
2019-03-18T11:59:46.645Z,10.50
2019-03-18T12:02:27.159Z,10.60
2019-03-18T12:04:47.928Z,10.50
2019-03-18T12:07:18.372Z,10.40
2019-03-18T12:09:48.804Z,10.50
2019-03-18T12:12:19.225Z,10.40
2019-03-18T12:14:49.674Z,10.40
2019-03-18T12:17:20.100Z,10.20
2019-03-18T12:19:50.855Z,10.30
2019-03-18T12:22:21.251Z,10.80
2019-03-18T12:24:51.711Z,11.50
2019-03-18T12:27:22.165Z,11.30
2019-03-18T12:29:52.623Z,11.10
2019-03-18T12:32:23.049Z,11.00
2019-03-18T12:34:53.467Z,11.10
2019-03-18T12:37:23.972Z,10.90
2019-03-18T12:39:54.425Z,11.00
2019-03-18T12:42:24.851Z,11.30
2019-03-18T12:44:55.262Z,11.90
2019-03-18T12:47:25.719Z,11.90
2019-03-18T12:49:56.159Z,11.70
2019-03-18T12:52:26.578Z,11.50
2019-03-18T12:54:57.023Z,11.20
2019-03-18T12:57:27.438Z,11.20
2019-03-18T12:59:58.115Z,11.20
2019-03-18T13:02:28.613Z,11.00
2019-03-18T13:04:59.063Z,11.20
2019-03-18T13:07:29.603Z,11.30
2019-03-18T13:10:21.550Z,11.40
2019-03-18T13:12:51.094Z,11.40
2019-03-18T13:15:21.727Z,11.60
2019-03-18T13:17:52.127Z,11.90
2019-03-18T13:20:22.644Z,11.90
2019-03-18T13:22:54.264Z,11.80
2019-03-18T13:25:24.902Z,11.80
2019-03-18T13:27:55.313Z,11.80
2019-03-18T13:30:44.706Z,11.70
2019-03-18T13:33:15.142Z,11.50
2019-03-18T13:35:45.568Z,11.40
2019-03-18T13:38:16.043Z,11.20
2019-03-18T13:40:46.584Z,11.20
2019-03-18T13:43:17.030Z,11.30
2019-03-18T13:45:55.402Z,11.10
2019-03-18T13:48:19.677Z,10.90
2019-03-18T13:50:50.135Z,10.70
2019-03-18T13:53:20.626Z,10.90
2019-03-18T13:55:51.064Z,11.10
2019-03-18T13:58:21.490Z,10.80
2019-03-18T14:00:51.915Z,10.70
2019-03-18T14:03:22.371Z,10.60
2019-03-18T14:05:52.802Z,10.80
2019-03-18T14:08:23.233Z,10.60
2019-03-18T14:10:53.675Z,10.60
2019-03-18T14:13:24.086Z,10.40
2019-03-18T14:15:54.548Z,10.40
2019-03-18T14:18:25.096Z,10.60
2019-03-18T14:20:55.624Z,10.70
2019-03-18T14:23:26.056Z,10.70
2019-03-18T14:25:56.588Z,10.50
2019-03-18T14:28:27.021Z,10.50
2019-03-18T14:30:57.475Z,10.30
2019-03-18T14:33:27.877Z,10.20
2019-03-18T14:35:58.354Z,10.30
2019-03-18T14:38:28.759Z,10.30
2019-03-18T14:40:59.237Z,10.40
2019-03-18T14:43:29.610Z,10.50
2019-03-18T14:46:00.102Z,10.30
2019-03-18T14:48:30.506Z,10.20
2019-03-18T14:51:00.984Z,10.30
2019-03-18T14:53:31.423Z,10.40
2019-03-18T14:56:01.862Z,10.30
2019-03-18T14:58:32.330Z,10.20
2019-03-18T15:01:02.857Z,10.10
2019-03-18T15:03:33.387Z,9.90
2019-03-18T15:06:03.815Z,9.80
2019-03-18T15:08:34.236Z,9.80
2019-03-18T15:11:04.767Z,9.80
2019-03-18T15:13:35.207Z,9.90
2019-03-18T15:16:05.866Z,10.00
2019-03-18T15:18:36.403Z,9.80
2019-03-18T15:21:06.977Z,9.50
2019-03-18T15:23:37.381Z,9.20
2019-03-18T15:26:07.765Z,8.90
2019-03-18T15:28:38.203Z,8.90
2019-03-18T15:31:08.607Z,8.70
2019-03-18T15:33:39.048Z,8.60
2019-03-18T15:36:10.327Z,8.60
2019-03-18T15:38:40.830Z,8.50
2019-03-18T15:41:11.493Z,8.40
2019-03-18T15:43:41.918Z,8.40
2019-03-18T15:46:12.340Z,8.30
2019-03-18T15:48:42.791Z,8.20
2019-03-18T15:51:13.217Z,8.20
2019-03-18T15:53:45.758Z,8.10
2019-03-18T15:56:16.193Z,8.10
2019-03-18T15:58:46.620Z,8.00
2019-03-18T16:01:17.058Z,8.00
2019-03-18T16:03:48.455Z,7.90
2019-03-18T16:06:18.987Z,7.80
2019-03-18T16:08:49.405Z,7.70
2019-03-18T16:11:19.832Z,7.60
2019-03-18T16:13:50.302Z,7.60
2019-03-18T16:16:20.755Z,7.50
2019-03-18T16:18:51.208Z,7.50
2019-03-18T16:21:21.683Z,7.40
2019-03-18T16:23:52.119Z,7.30
2019-03-18T16:26:22.542Z,7.30
2019-03-18T16:28:53.055Z,7.20
2019-03-18T16:31:23.510Z,7.20
2019-03-18T16:33:53.943Z,7.10
2019-03-18T16:36:24.509Z,7.10
2019-03-18T16:38:54.978Z,7.00
2019-03-18T16:41:25.410Z,7.00
2019-03-18T16:43:55.900Z,6.90
2019-03-18T16:46:26.303Z,6.90
2019-03-18T16:48:56.740Z,6.80
2019-03-18T16:51:28.346Z,6.60
2019-03-18T16:53:58.803Z,6.20
2019-03-18T16:56:29.223Z,6.40
2019-03-18T16:58:59.638Z,6.30
2019-03-18T17:01:30.138Z,6.40
2019-03-18T17:04:00.560Z,6.30
2019-03-18T17:06:31.203Z,6.50
2019-03-18T17:09:01.616Z,6.30
2019-03-18T17:11:32.043Z,6.30
2019-03-18T17:14:02.482Z,6.30
2019-03-18T17:16:32.922Z,6.40
2019-03-18T17:19:03.391Z,6.40
2019-03-18T17:21:33.788Z,6.20
2019-03-18T17:24:04.691Z,6.30
2019-03-18T17:26:35.166Z,6.30
2019-03-18T17:29:05.593Z,6.20
2019-03-18T17:31:36.059Z,6.10
2019-03-18T17:34:06.747Z,5.90
2019-03-18T17:36:37.279Z,5.80
2019-03-18T17:39:09.487Z,5.90
2019-03-18T17:41:39.978Z,5.60
2019-03-18T17:44:10.375Z,5.60
2019-03-18T17:46:40.762Z,5.50
2019-03-18T17:49:11.191Z,5.40
2019-03-18T17:51:41.612Z,5.40
2019-03-18T17:54:12.003Z,5.60
2019-03-18T17:56:42.475Z,5.30
2019-03-18T17:59:12.882Z,5.30
2019-03-18T18:01:43.290Z,5.30
2019-03-18T18:04:13.739Z,5.00
2019-03-18T18:06:44.174Z,4.90
2019-03-18T18:09:14.618Z,4.90
2019-03-18T18:12:22.954Z,4.90
2019-03-18T18:14:53.367Z,4.80
2019-03-18T18:17:25.757Z,4.60
2019-03-18T18:19:56.188Z,4.70
2019-03-18T18:22:26.626Z,4.60
2019-03-18T18:24:57.046Z,4.70
2019-03-18T18:27:27.454Z,4.80
2019-03-18T18:29:57.935Z,4.40
2019-03-18T18:32:28.335Z,4.30
2019-03-18T18:34:58.799Z,4.50
2019-03-18T18:40:17.294Z,4.30
2019-03-18T18:42:47.706Z,4.30
2019-03-18T18:45:18.111Z,4.00
2019-03-18T18:47:48.551Z,4.00
2019-03-18T18:50:19.736Z,3.80
2019-03-18T18:52:50.367Z,3.70
2019-03-18T18:55:20.863Z,3.70
2019-03-18T18:57:51.387Z,3.70
2019-03-18T19:00:25.639Z,3.80
2019-03-18T19:02:56.297Z,3.60
2019-03-18T19:05:26.771Z,4.00
2019-03-18T19:07:57.771Z,3.70
2019-03-18T19:10:28.680Z,3.90
2019-03-18T19:12:59.287Z,3.50
2019-03-18T19:15:29.775Z,3.70
2019-03-18T19:18:00.238Z,3.50
2019-03-18T19:20:30.854Z,3.30
2019-03-18T19:23:01.266Z,3.30
2019-03-18T19:25:31.714Z,3.20
2019-03-18T19:28:02.132Z,3.20
2019-03-18T19:30:32.718Z,3.00
2019-03-18T19:33:22.057Z,2.90
2019-03-18T19:35:52.541Z,3.10
2019-03-18T19:38:22.956Z,3.10
2019-03-18T19:40:53.467Z,2.90
2019-03-18T19:43:23.875Z,2.90
2019-03-18T19:45:54.406Z,2.90
2019-03-18T19:48:24.887Z,2.60
2019-03-18T19:50:55.553Z,2.80
2019-03-18T19:53:25.966Z,2.80
2019-03-18T19:55:56.465Z,2.40
2019-03-18T19:58:26.877Z,2.50
2019-03-18T20:00:57.456Z,2.30
2019-03-18T20:03:27.918Z,2.40
2019-03-18T20:05:58.382Z,2.30
2019-03-18T20:08:28.786Z,2.20
2019-03-18T20:10:59.324Z,2.20
2019-03-18T20:13:29.786Z,2.40
2019-03-18T20:16:00.301Z,2.00
2019-03-18T20:18:30.810Z,2.20
2019-03-18T20:21:01.318Z,2.10
2019-03-18T20:23:31.808Z,2.20
2019-03-18T20:26:02.250Z,2.10
2019-03-18T20:28:32.691Z,2.00
2019-03-18T20:31:03.173Z,2.00
2019-03-18T20:33:33.626Z,2.00
2019-03-18T20:36:04.200Z,2.10
2019-03-18T20:38:34.672Z,2.10
2019-03-18T20:41:05.266Z,2.20
2019-03-18T20:43:35.795Z,2.10
2019-03-18T20:46:06.258Z,2.30
2019-03-18T20:48:36.676Z,2.60
2019-03-18T20:51:07.123Z,2.80
2019-03-18T20:53:37.911Z,2.80
2019-03-18T20:56:08.454Z,2.90
2019-03-18T20:58:38.932Z,3.10
2019-03-18T21:01:09.406Z,3.10
2019-03-18T21:03:39.814Z,3.10
2019-03-18T21:06:10.291Z,3.00
2019-03-18T21:08:40.755Z,3.10
2019-03-18T21:11:11.168Z,3.20
2019-03-18T21:13:41.618Z,3.30
2019-03-18T21:16:12.118Z,3.10
2019-03-18T21:18:44.062Z,3.30
2019-03-18T21:21:14.751Z,3.30
2019-03-18T21:23:45.200Z,3.30
2019-03-18T21:26:16.015Z,3.60
2019-03-18T21:28:46.629Z,3.70
2019-03-18T21:31:17.102Z,3.90
2019-03-18T21:33:47.583Z,3.60
2019-03-18T21:36:32.941Z,3.80
2019-03-18T21:38:50.306Z,3.60
2019-03-18T21:41:20.771Z,3.60
2019-03-18T21:43:51.338Z,3.40
2019-03-18T21:46:21.827Z,3.20
2019-03-18T21:48:52.231Z,3.00
2019-03-18T21:51:22.696Z,3.10
2019-03-18T21:53:53.160Z,2.80
2019-03-18T21:56:27.102Z,2.80
2019-03-18T21:58:57.543Z,2.90
2019-03-18T22:01:28.022Z,2.70
2019-03-18T22:03:58.573Z,2.50
2019-03-18T22:06:28.990Z,2.40
2019-03-18T22:08:59.456Z,2.50
2019-03-18T22:11:29.953Z,2.60
2019-03-18T22:14:00.499Z,2.50
2019-03-18T22:16:31.026Z,2.40
2019-03-18T22:19:01.429Z,2.10
2019-03-18T22:21:31.940Z,2.20
2019-03-18T22:24:02.503Z,2.20
2019-03-18T22:26:32.978Z,2.10
2019-03-18T22:29:03.409Z,2.10
2019-03-18T22:31:33.869Z,2.20
2019-03-18T22:34:04.434Z,1.80
2019-03-18T22:36:34.977Z,1.80
2019-03-18T22:39:07.965Z,1.80
2019-03-18T22:41:38.496Z,1.90
2019-03-18T22:44:09.032Z,1.90
2019-03-18T22:46:39.438Z,1.80
2019-03-18T22:49:09.890Z,1.70
2019-03-18T22:51:40.318Z,1.80
2019-03-18T22:54:10.727Z,1.60
2019-03-18T22:56:41.274Z,1.60
2019-03-18T22:59:11.863Z,1.90
2019-03-18T23:01:42.461Z,1.60
2019-03-18T23:04:12.841Z,1.70
2019-03-18T23:06:43.373Z,1.60
2019-03-18T23:09:13.917Z,1.70
2019-03-18T23:11:44.538Z,1.80
2019-03-18T23:14:14.946Z,1.70
2019-03-18T23:16:45.442Z,1.60
2019-03-18T23:19:15.808Z,1.60
2019-03-18T23:21:46.225Z,1.50
2019-03-18T23:24:16.626Z,1.40
2019-03-18T23:26:47.020Z,1.40
2019-03-18T23:29:17.805Z,1.40
2019-03-18T23:32:44.655Z,1.30
2019-03-18T23:35:15.020Z,1.50
2019-03-18T23:37:45.413Z,1.40
2019-03-18T23:40:15.949Z,1.50
2019-03-18T23:42:46.356Z,1.50
2019-03-18T23:45:16.866Z,1.50
2019-03-18T23:47:47.274Z,1.50
2019-03-18T23:50:17.706Z,1.60
2019-03-18T23:52:48.174Z,1.60
2019-03-18T23:55:19.986Z,1.50
2019-03-18T23:57:50.628Z,1.50
